createdAt,value
2023-02-11T00:00:07.145Z,19.10
2023-02-11T00:01:12.181Z,19.47
2023-02-11T00:02:13.999Z,19.23
2023-02-11T00:03:15.882Z,19.07
2023-02-11T00:04:17.648Z,18.93
2023-02-11T00:05:19.416Z,18.33
2023-02-11T00:06:21.820Z,19.33
2023-02-11T00:07:23.612Z,19.30
2023-02-11T00:08:25.877Z,18.63
2023-02-11T00:09:28.531Z,18.33
2023-02-11T00:10:31.509Z,19.60
2023-02-11T00:11:33.780Z,19.37
2023-02-11T00:12:37.178Z,19.33
2023-02-11T00:13:38.926Z,19.70
2023-02-11T00:14:40.684Z,20.43
2023-02-11T00:15:42.386Z,20.23
2023-02-11T00:16:44.147Z,20.00
2023-02-11T00:17:45.925Z,19.53
2023-02-11T00:18:48.081Z,18.53
2023-02-11T00:19:50.890Z,19.63
2023-02-11T00:20:52.614Z,20.27
2023-02-11T00:21:54.444Z,19.13
2023-02-11T00:22:56.184Z,19.53
2023-02-11T00:23:59.833Z,18.97
2023-02-11T00:25:01.723Z,19.53
2023-02-11T00:26:04.989Z,19.43
2023-02-11T00:27:06.708Z,19.87
2023-02-11T00:28:09.058Z,20.07
2023-02-11T00:29:11.156Z,20.27
2023-02-11T00:30:13.155Z,19.77
2023-02-11T00:31:16.417Z,20.83
2023-02-11T00:32:18.531Z,18.97
2023-02-11T00:33:20.296Z,19.30
2023-02-11T00:34:21.985Z,19.27
2023-02-11T00:35:23.915Z,21.40
2023-02-11T00:36:28.029Z,19.20
2023-02-11T00:37:29.800Z,20.33
2023-02-11T00:38:31.552Z,20.27
2023-02-11T00:39:33.377Z,20.23
2023-02-11T00:40:35.179Z,20.50
2023-02-11T00:41:37.169Z,20.60
2023-02-11T00:42:38.958Z,20.23
2023-02-11T00:43:41.296Z,20.33
2023-02-11T00:44:43.256Z,20.23
2023-02-11T00:45:45.164Z,21.07
2023-02-11T00:46:47.115Z,20.90
2023-02-11T00:47:49.027Z,21.30
2023-02-11T00:48:51.798Z,20.67
2023-02-11T00:49:53.678Z,21.10
2023-02-11T00:50:55.425Z,20.73
2023-02-11T00:51:57.191Z,19.67
2023-02-11T00:52:58.998Z,19.03
2023-02-11T00:54:00.759Z,20.50
2023-02-11T00:55:02.523Z,19.83
2023-02-11T00:56:04.837Z,20.37
2023-02-11T00:57:06.556Z,20.40
2023-02-11T00:58:08.258Z,21.33
2023-02-11T00:59:10.165Z,21.43
2023-02-11T01:00:13.743Z,20.20
2023-02-11T01:01:15.516Z,20.73
2023-02-11T01:02:18.081Z,20.37
2023-02-11T01:03:19.880Z,20.70
2023-02-11T01:04:21.646Z,19.60
2023-02-11T01:05:24.763Z,19.53
2023-02-11T01:06:26.541Z,19.40
2023-02-11T01:07:28.761Z,20.03
2023-02-11T01:08:30.687Z,20.37
2023-02-11T01:09:32.418Z,20.27
2023-02-11T01:10:34.151Z,20.87
2023-02-11T01:11:35.945Z,20.87
2023-02-11T01:12:37.977Z,20.70
2023-02-11T01:13:39.918Z,19.73
2023-02-11T01:14:42.001Z,20.67
2023-02-11T01:15:43.817Z,19.70
2023-02-11T01:16:45.632Z,21.17
2023-02-11T01:17:47.900Z,21.67
2023-02-11T01:18:49.664Z,22.00
2023-02-11T01:19:51.362Z,20.97
2023-02-11T01:20:53.895Z,19.93
2023-02-11T01:21:55.574Z,20.80
2023-02-11T01:22:57.409Z,21.67
2023-02-11T01:23:59.134Z,21.07
2023-02-11T01:25:01.269Z,21.97
2023-02-11T01:26:03.151Z,21.27
2023-02-11T01:27:04.875Z,20.27
2023-02-11T01:28:06.610Z,22.13
2023-02-11T01:29:09.401Z,20.83
2023-02-11T01:30:13.629Z,21.00
2023-02-11T01:31:15.447Z,21.97
2023-02-11T01:32:18.552Z,21.43
2023-02-11T01:33:21.118Z,20.37
2023-02-11T01:34:22.832Z,20.80
2023-02-11T01:35:24.642Z,20.87
2023-02-11T01:36:26.404Z,20.43
2023-02-11T01:37:28.508Z,19.73
2023-02-11T01:38:31.185Z,19.67
2023-02-11T01:39:34.072Z,20.33
2023-02-11T01:40:35.844Z,20.70
2023-02-11T01:41:37.674Z,21.57
2023-02-11T01:42:39.426Z,20.73
2023-02-11T01:43:44.893Z,20.17
2023-02-11T01:44:51.443Z,21.37
2023-02-11T01:46:14.554Z,21.03
2023-02-11T01:47:16.262Z,20.60
2023-02-11T01:48:26.853Z,21.17
2023-02-11T01:49:32.305Z,20.90
2023-02-11T01:50:34.643Z,20.23
2023-02-11T01:51:46.256Z,20.87
2023-02-11T01:52:48.225Z,21.10
2023-02-11T01:54:09.737Z,20.53
2023-02-11T01:55:32.265Z,19.47
2023-02-11T01:56:55.697Z,19.63
2023-02-11T01:58:02.462Z,21.50
2023-02-11T01:59:10.949Z,21.10
2023-02-11T02:00:24.173Z,20.10
2023-02-11T02:01:27.714Z,21.70
2023-02-11T02:02:49.964Z,20.20
2023-02-11T02:03:57.174Z,20.37
2023-02-11T02:05:08.273Z,20.27
2023-02-11T02:06:16.622Z,20.33
2023-02-11T02:07:30.642Z,21.23
2023-02-11T02:08:50.326Z,20.83
2023-02-11T02:10:00.614Z,18.63
2023-02-11T02:11:03.438Z,20.47
2023-02-11T02:12:05.475Z,20.50
2023-02-11T02:13:07.228Z,20.80
2023-02-11T02:14:08.982Z,19.40
2023-02-11T02:15:24.570Z,20.83
2023-02-11T02:16:33.061Z,19.97
2023-02-11T02:17:44.053Z,19.33
2023-02-11T02:19:07.150Z,20.00
2023-02-11T02:20:34.234Z,19.53
2023-02-11T02:21:54.692Z,20.03
2023-02-11T02:23:11.466Z,19.47
2023-02-11T02:24:31.812Z,18.97
2023-02-11T02:25:39.437Z,21.00
2023-02-11T02:27:00.566Z,21.73
2023-02-11T02:28:40.741Z,20.07
2023-02-11T02:30:28.577Z,20.53
2023-02-11T02:32:11.541Z,19.87
2023-02-11T02:33:23.004Z,20.47
2023-02-11T02:34:42.985Z,20.20
2023-02-11T02:35:58.447Z,20.60
2023-02-11T02:37:17.395Z,19.50
2023-02-11T02:38:23.358Z,20.23
2023-02-11T02:39:29.359Z,20.27
2023-02-11T02:40:46.464Z,21.20
2023-02-11T02:41:50.862Z,22.23
2023-02-11T02:42:55.109Z,21.97
2023-02-11T02:43:57.288Z,21.80
2023-02-11T02:44:59.318Z,22.37
2023-02-11T02:46:31.810Z,23.27
2023-02-11T02:47:33.548Z,21.77
2023-02-11T02:48:38.214Z,22.00
2023-02-11T02:49:39.881Z,21.37
2023-02-11T02:50:41.742Z,22.20
2023-02-11T02:51:49.172Z,23.47
2023-02-11T02:53:10.662Z,23.40
2023-02-11T02:54:28.545Z,23.30
2023-02-11T02:55:42.862Z,23.37
2023-02-11T02:57:07.071Z,23.10
2023-02-11T02:58:39.985Z,22.03
2023-02-11T02:59:51.048Z,22.37
2023-02-11T03:01:14.769Z,23.07
2023-02-11T03:02:33.741Z,22.23
2023-02-11T03:03:58.697Z,23.27
2023-02-11T03:05:15.255Z,25.30
2023-02-11T03:06:45.145Z,23.37
2023-02-11T03:08:02.712Z,21.33
2023-02-11T03:09:13.458Z,22.70
2023-02-11T03:10:25.221Z,22.40
2023-02-11T03:11:29.055Z,21.73
2023-02-11T03:12:32.496Z,22.67
2023-02-11T03:13:37.610Z,22.27
2023-02-11T03:14:41.044Z,22.30
2023-02-11T03:15:46.399Z,22.47
2023-02-11T03:16:49.576Z,21.57
2023-02-11T03:17:54.457Z,22.17
2023-02-11T03:19:02.182Z,22.47
2023-02-11T03:20:06.758Z,22.83
2023-02-11T03:21:11.206Z,24.13
2023-02-11T03:22:25.492Z,23.00
2023-02-11T03:23:36.775Z,23.77
2023-02-11T03:24:40.989Z,24.83
2023-02-11T03:25:50.920Z,23.83
2023-02-11T03:27:01.637Z,23.23
2023-02-11T03:28:11.224Z,22.50
2023-02-11T03:29:24.469Z,22.93
2023-02-11T03:30:38.720Z,22.50
2023-02-11T03:32:07.495Z,23.10
2023-02-11T03:33:20.166Z,21.97
2023-02-11T03:34:44.384Z,23.03
2023-02-11T03:36:04.116Z,23.50
2023-02-11T03:37:14.202Z,21.70
2023-02-11T03:38:26.057Z,22.60
2023-02-11T03:39:33.599Z,22.63
2023-02-11T03:40:40.706Z,21.80
2023-02-11T03:41:43.353Z,23.00
2023-02-11T03:43:17.534Z,23.30
2023-02-11T03:44:20.977Z,23.47
2023-02-11T03:45:25.144Z,21.73
2023-02-11T03:46:39.143Z,22.57
2023-02-11T03:47:46.708Z,22.97
2023-02-11T03:49:01.254Z,23.20
2023-02-11T03:50:06.182Z,23.30
2023-02-11T03:51:10.976Z,22.23
2023-02-11T03:52:14.499Z,23.63
2023-02-11T03:53:16.900Z,23.93
2023-02-11T03:54:26.089Z,24.97
2023-02-11T03:55:29.880Z,22.63
2023-02-11T03:56:38.347Z,22.63
2023-02-11T03:57:40.132Z,22.07
2023-02-11T03:58:44.049Z,23.70
2023-02-11T03:59:58.166Z,23.20
2023-02-11T04:01:02.396Z,22.80
2023-02-11T04:02:04.156Z,22.77
2023-02-11T04:03:07.005Z,23.10
2023-02-11T04:04:08.820Z,22.90
2023-02-11T04:05:15.889Z,23.83
2023-02-11T04:06:17.668Z,23.73
2023-02-11T04:07:19.528Z,26.53
2023-02-11T04:08:21.352Z,26.10
2023-02-11T04:09:23.113Z,24.23
2023-02-11T04:10:25.219Z,24.67
2023-02-11T04:11:26.979Z,25.63
2023-02-11T04:12:28.669Z,24.43
2023-02-11T04:13:30.637Z,25.37
2023-02-11T04:14:32.319Z,24.60
2023-02-11T04:15:34.055Z,24.93
2023-02-11T04:16:35.785Z,24.53
2023-02-11T04:17:37.572Z,24.90
2023-02-11T04:18:39.237Z,24.43
2023-02-11T04:19:40.995Z,22.90
2023-02-11T04:20:42.916Z,24.23
2023-02-11T04:21:44.591Z,25.17
2023-02-11T04:22:46.343Z,24.80
2023-02-11T04:23:48.119Z,25.63
2023-02-11T04:24:49.973Z,23.70
2023-02-11T04:25:52.898Z,27.33
2023-02-11T04:26:55.148Z,27.50
2023-02-11T04:27:57.846Z,26.10
2023-02-11T04:28:59.519Z,24.57
2023-02-11T04:30:01.281Z,23.80
2023-02-11T04:31:03.100Z,24.33
2023-02-11T04:32:04.983Z,24.50
2023-02-11T04:33:06.758Z,24.87
2023-02-11T04:34:08.477Z,25.33
2023-02-11T04:35:10.266Z,24.43
2023-02-11T04:36:12.887Z,23.47
2023-02-11T04:37:15.042Z,24.57
2023-02-11T04:38:17.522Z,24.60
2023-02-11T04:39:19.208Z,24.87
2023-02-11T04:40:20.954Z,25.47
2023-02-11T04:41:22.725Z,24.07
2023-02-11T04:42:24.631Z,24.57
2023-02-11T04:43:26.369Z,24.03
2023-02-11T04:44:28.096Z,23.97
2023-02-11T04:45:29.794Z,24.23
2023-02-11T04:46:31.675Z,24.43
2023-02-11T04:47:33.648Z,23.73
2023-02-11T04:48:35.933Z,23.90
2023-02-11T04:49:37.627Z,23.77
2023-02-11T04:50:39.338Z,23.20
2023-02-11T04:51:41.836Z,24.17
2023-02-11T04:52:43.572Z,22.77
2023-02-11T04:53:45.316Z,23.93
2023-02-11T04:54:47.016Z,24.33
2023-02-11T04:55:50.856Z,25.03
2023-02-11T04:56:52.874Z,25.00
2023-02-11T04:57:55.354Z,25.30
2023-02-11T04:58:57.107Z,24.90
2023-02-11T04:59:58.869Z,24.20
2023-02-11T05:01:08.768Z,25.50
2023-02-11T05:02:10.559Z,24.83
2023-02-11T05:03:12.562Z,24.00
2023-02-11T05:04:14.310Z,25.23
2023-02-11T05:05:16.075Z,24.67
2023-02-11T05:06:18.425Z,24.43
2023-02-11T05:07:20.139Z,26.73
2023-02-11T05:08:21.986Z,27.70
2023-02-11T05:09:23.754Z,26.83
2023-02-11T05:10:25.536Z,26.87
2023-02-11T05:11:27.364Z,28.23
2023-02-11T05:12:29.045Z,27.30
2023-02-11T05:13:31.539Z,27.77
2023-02-11T05:14:33.502Z,26.53
2023-02-11T05:15:35.188Z,26.40
2023-02-11T05:16:36.942Z,27.97
2023-02-11T05:17:38.712Z,27.13
2023-02-11T05:18:42.266Z,26.50
2023-02-11T05:19:44.052Z,27.77
2023-02-11T05:20:46.248Z,27.07
2023-02-11T05:22:01.731Z,26.83
2023-02-11T05:23:04.117Z,25.90
2023-02-11T05:24:06.775Z,27.07
2023-02-11T05:25:08.639Z,26.90
2023-02-11T05:26:11.233Z,25.93
2023-02-11T05:27:12.969Z,25.73
2023-02-11T05:28:15.230Z,25.53
2023-02-11T05:29:16.991Z,25.40
2023-02-11T05:30:18.820Z,25.57
2023-02-11T05:31:20.556Z,25.43
2023-02-11T05:32:22.247Z,25.07
2023-02-11T05:33:24.174Z,25.47
2023-02-11T05:34:25.920Z,25.83
2023-02-11T05:35:27.667Z,24.33
2023-02-11T05:36:31.641Z,24.07
2023-02-11T05:37:35.186Z,25.30
2023-02-11T05:38:37.946Z,24.17
2023-02-11T05:39:39.636Z,24.27
2023-02-11T05:40:41.691Z,25.07
2023-02-11T05:41:43.444Z,24.47
2023-02-11T05:42:45.188Z,24.17
2023-02-11T05:43:51.023Z,24.07
2023-02-11T05:44:52.707Z,25.20
2023-02-11T05:45:54.760Z,25.47
2023-02-11T05:46:56.521Z,27.20
2023-02-11T05:47:58.227Z,22.87
2023-02-11T05:48:59.988Z,24.30
2023-02-11T05:50:01.767Z,24.10
2023-02-11T05:51:03.676Z,24.80
2023-02-11T05:52:05.696Z,24.60
2023-02-11T05:53:07.619Z,24.97
2023-02-11T05:54:09.967Z,25.77
2023-02-11T05:55:11.766Z,25.03
2023-02-11T05:56:14.594Z,25.20
2023-02-11T05:57:17.053Z,25.60
2023-02-11T05:58:18.833Z,24.50
2023-02-11T05:59:20.559Z,24.27
2023-02-11T06:00:22.522Z,25.97
2023-02-11T06:01:24.354Z,25.23
2023-02-11T06:02:27.496Z,23.87
2023-02-11T06:03:29.378Z,24.57
2023-02-11T06:04:31.215Z,24.67
2023-02-11T06:05:33.611Z,24.90
2023-02-11T06:06:35.362Z,23.70
2023-02-11T06:07:37.442Z,24.80
2023-02-11T06:08:39.618Z,24.50
2023-02-11T06:09:41.388Z,25.67
2023-02-11T06:10:45.681Z,24.57
2023-02-11T06:11:47.413Z,24.70
2023-02-11T06:12:49.263Z,24.07
2023-02-11T06:13:51.466Z,24.60
2023-02-11T06:14:53.513Z,24.57
2023-02-11T06:15:59.407Z,23.30
2023-02-11T06:17:01.809Z,24.13
2023-02-11T06:18:04.017Z,23.60
2023-02-11T06:19:05.871Z,24.47
2023-02-11T06:20:10.498Z,24.93
2023-02-11T06:21:12.833Z,23.87
2023-02-11T06:22:14.582Z,25.07
2023-02-11T06:23:16.374Z,24.80
2023-02-11T06:24:33.105Z,22.77
2023-02-11T06:25:39.864Z,23.17
2023-02-11T06:26:41.709Z,24.77
2023-02-11T06:27:43.441Z,23.93
2023-02-11T06:28:45.721Z,25.03
2023-02-11T06:29:47.967Z,24.47
2023-02-11T06:30:49.753Z,23.70
2023-02-11T06:31:51.652Z,25.47
2023-02-11T06:32:54.724Z,25.47
2023-02-11T06:33:56.527Z,25.23
2023-02-11T06:34:58.313Z,25.07
2023-02-11T06:36:00.324Z,25.10
2023-02-11T06:37:02.130Z,24.07
2023-02-11T06:38:03.926Z,25.27
2023-02-11T06:39:05.776Z,25.10
2023-02-11T06:40:08.351Z,24.37
2023-02-11T06:41:14.994Z,25.37
2023-02-11T06:42:16.749Z,23.23
2023-02-11T06:43:18.606Z,24.67
2023-02-11T06:44:20.289Z,23.47
2023-02-11T06:45:22.145Z,25.07
2023-02-11T06:46:24.094Z,24.97
2023-02-11T06:47:25.896Z,23.93
2023-02-11T06:48:27.693Z,25.80
2023-02-11T06:49:29.452Z,24.47
2023-02-11T06:50:31.206Z,23.83
2023-02-11T06:51:32.953Z,23.53
2023-02-11T06:52:34.791Z,23.10
2023-02-11T06:53:39.142Z,24.00
2023-02-11T06:54:40.865Z,22.07
2023-02-11T06:55:42.735Z,22.93
2023-02-11T06:56:44.441Z,24.13
2023-02-11T06:57:46.114Z,22.30
2023-02-11T06:58:48.281Z,23.23
2023-02-11T06:59:50.076Z,23.13
2023-02-11T07:00:52.377Z,22.37
2023-02-11T07:01:54.285Z,24.10
2023-02-11T07:02:56.374Z,23.37
2023-02-11T07:03:58.464Z,23.70
2023-02-11T07:05:00.286Z,23.57
2023-02-11T07:06:03.249Z,23.47
2023-02-11T07:07:05.022Z,24.63
2023-02-11T07:08:06.971Z,23.70
2023-02-11T07:09:08.848Z,23.63
2023-02-11T07:10:10.896Z,25.47
2023-02-11T07:11:17.905Z,23.17
2023-02-11T07:12:19.749Z,23.17
2023-02-11T07:13:21.688Z,23.53
2023-02-11T07:14:23.488Z,23.03
2023-02-11T07:15:25.238Z,23.53
2023-02-11T07:16:26.969Z,24.00
2023-02-11T07:17:28.736Z,22.77
2023-02-11T07:18:30.456Z,23.87
2023-02-11T07:19:32.361Z,24.87
2023-02-11T07:20:34.198Z,25.53
2023-02-11T07:21:36.032Z,24.73
2023-02-11T07:22:37.928Z,31.27
2023-02-11T07:23:40.937Z,27.30
2023-02-11T07:24:42.784Z,26.07
2023-02-11T07:25:44.570Z,24.10
2023-02-11T07:26:46.360Z,24.13
2023-02-11T07:27:48.044Z,24.30
2023-02-11T07:28:51.160Z,24.13
2023-02-11T07:29:53.127Z,23.80
2023-02-11T07:30:54.900Z,24.27
2023-02-11T07:31:56.647Z,23.67
2023-02-11T07:32:59.187Z,24.80
2023-02-11T07:34:01.839Z,25.23
2023-02-11T07:35:04.400Z,24.23
2023-02-11T07:36:08.488Z,23.30
2023-02-11T07:37:10.892Z,22.63
2023-02-11T07:38:12.888Z,24.53
2023-02-11T07:39:15.223Z,24.80
2023-02-11T07:40:17.187Z,23.90
2023-02-11T07:41:21.800Z,24.20
2023-02-11T07:42:23.503Z,24.17
2023-02-11T07:43:26.128Z,25.20
2023-02-11T07:44:27.950Z,24.90
2023-02-11T07:45:29.766Z,23.23
2023-02-11T07:46:31.670Z,23.83
2023-02-11T07:47:35.055Z,25.20
2023-02-11T07:48:36.987Z,23.47
2023-02-11T07:49:38.740Z,24.53
2023-02-11T07:50:40.836Z,24.57
2023-02-11T07:51:42.630Z,25.10
2023-02-11T07:52:44.295Z,25.13
2023-02-11T07:53:46.691Z,25.40
2023-02-11T07:54:48.793Z,25.40
2023-02-11T07:55:50.801Z,24.80
2023-02-11T07:56:52.722Z,25.07
2023-02-11T07:57:54.453Z,24.43
2023-02-11T07:58:59.721Z,25.27
2023-02-11T08:00:01.669Z,24.60
2023-02-11T08:01:09.427Z,24.73
2023-02-11T08:02:11.821Z,24.53
2023-02-11T08:03:13.584Z,24.13
2023-02-11T08:04:15.260Z,24.13
2023-02-11T08:05:17.020Z,24.17
2023-02-11T08:06:20.518Z,24.47
2023-02-11T08:07:22.314Z,24.30
2023-02-11T08:08:27.490Z,24.03
2023-02-11T08:09:29.270Z,23.53
2023-02-11T08:10:30.995Z,24.13
2023-02-11T08:11:32.861Z,24.00
2023-02-11T08:12:34.656Z,23.73
2023-02-11T08:13:36.993Z,25.90
2023-02-11T08:14:38.816Z,25.30
2023-02-11T08:15:40.591Z,25.40
2023-02-11T08:16:42.520Z,24.43
2023-02-11T08:17:44.247Z,25.43
2023-02-11T08:18:46.075Z,25.43
2023-02-11T08:19:47.841Z,24.90
2023-02-11T08:20:49.865Z,25.10
2023-02-11T08:21:55.555Z,24.13
2023-02-11T08:22:57.297Z,24.50
2023-02-11T08:24:00.977Z,23.97
2023-02-11T08:25:03.054Z,23.60
2023-02-11T08:26:11.863Z,25.53
2023-02-11T08:27:13.544Z,23.53
2023-02-11T08:28:15.405Z,23.33
2023-02-11T08:29:18.095Z,25.00
2023-02-11T08:30:20.081Z,23.63
2023-02-11T08:31:25.009Z,24.40
2023-02-11T08:32:26.877Z,23.63
2023-02-11T08:33:28.574Z,23.40
2023-02-11T08:34:30.318Z,22.90
2023-02-11T08:35:33.106Z,23.37
2023-02-11T08:36:37.461Z,23.23
2023-02-11T08:37:39.321Z,23.50
2023-02-11T08:38:42.077Z,23.57
2023-02-11T08:39:43.846Z,24.40
2023-02-11T08:40:45.593Z,22.97
2023-02-11T08:41:49.312Z,23.67
2023-02-11T08:42:51.003Z,23.67
2023-02-11T08:43:52.690Z,24.33
2023-02-11T08:44:54.362Z,24.73
2023-02-11T08:45:56.255Z,24.73
2023-02-11T08:46:57.970Z,22.40
2023-02-11T08:47:59.637Z,24.03
2023-02-11T08:49:01.409Z,23.67
2023-02-11T08:50:04.134Z,23.43
2023-02-11T08:51:08.431Z,25.30
2023-02-11T08:52:10.238Z,23.90
2023-02-11T08:53:12.022Z,22.73
2023-02-11T08:54:14.265Z,22.97
2023-02-11T08:55:16.226Z,22.97
2023-02-11T08:56:19.819Z,23.37
2023-02-11T08:57:21.678Z,24.73
2023-02-11T08:58:23.475Z,23.70
2023-02-11T08:59:25.195Z,24.07
2023-02-11T09:00:27.907Z,23.23
2023-02-11T09:01:31.697Z,22.83
2023-02-11T09:02:33.670Z,23.07
2023-02-11T09:03:35.379Z,24.33
2023-02-11T09:04:37.108Z,22.10
2023-02-11T09:05:43.201Z,23.43
2023-02-11T09:06:45.665Z,25.63
2023-02-11T09:07:47.348Z,25.80
2023-02-11T09:08:51.429Z,24.13
2023-02-11T09:09:53.256Z,23.30
2023-02-11T09:10:57.706Z,22.90
2023-02-11T09:12:01.210Z,23.57
2023-02-11T09:13:03.364Z,22.93
2023-02-11T09:14:05.203Z,23.13
2023-02-11T09:15:07.358Z,22.77
2023-02-11T09:16:15.857Z,23.03
2023-02-11T09:17:17.520Z,23.53
2023-02-11T09:18:19.233Z,23.60
2023-02-11T09:19:21.510Z,24.03
2023-02-11T09:20:23.582Z,23.17
2023-02-11T09:21:25.670Z,23.70
2023-02-11T09:22:27.471Z,24.63
2023-02-11T09:23:29.557Z,23.77
2023-02-11T09:24:31.340Z,24.23
2023-02-11T09:25:33.042Z,24.17
2023-02-11T09:26:36.733Z,23.20
2023-02-11T09:27:38.525Z,22.67
2023-02-11T09:28:40.931Z,24.17
2023-02-11T09:29:43.117Z,24.03
2023-02-11T09:30:44.884Z,23.37
2023-02-11T09:31:46.891Z,23.40
2023-02-11T09:32:48.917Z,23.93
2023-02-11T09:33:54.426Z,23.07
2023-02-11T09:34:56.142Z,23.37
2023-02-11T09:36:01.511Z,23.40
2023-02-11T09:37:03.289Z,22.77
2023-02-11T09:38:04.972Z,22.90
2023-02-11T09:39:12.129Z,21.73
2023-02-11T09:40:15.902Z,23.83
2023-02-11T09:41:40.265Z,23.10
2023-02-11T09:43:15.764Z,21.90
2023-02-11T09:44:23.714Z,22.63
2023-02-11T09:45:28.113Z,22.53
2023-02-11T09:46:37.644Z,22.83
2023-02-11T09:48:06.517Z,23.03
2023-02-11T09:49:18.801Z,22.77
2023-02-11T09:50:35.279Z,22.20
2023-02-11T09:51:47.337Z,22.10
2023-02-11T09:52:56.725Z,22.97
2023-02-11T09:54:05.567Z,22.50
2023-02-11T09:55:21.763Z,22.40
2023-02-11T09:56:25.057Z,23.60
2023-02-11T09:57:36.868Z,23.17
2023-02-11T09:58:43.969Z,22.90
2023-02-11T09:59:45.772Z,22.20
2023-02-11T10:00:57.542Z,24.67
2023-02-11T10:02:04.254Z,23.27
2023-02-11T10:03:48.310Z,22.33
2023-02-11T10:05:09.688Z,22.90
2023-02-11T10:06:34.444Z,22.57
2023-02-11T10:07:55.048Z,22.70
2023-02-11T10:09:23.881Z,22.00
2023-02-11T10:10:25.630Z,21.80
2023-02-11T10:12:06.341Z,22.40
2023-02-11T10:13:25.835Z,22.60
2023-02-11T10:15:06.972Z,22.67
2023-02-11T10:16:48.242Z,22.23
2023-02-11T10:18:23.612Z,21.10
2023-02-11T10:19:51.024Z,21.47
2023-02-11T10:21:18.869Z,20.17
2023-02-11T10:22:39.517Z,21.43
2023-02-11T10:23:44.832Z,21.43
2023-02-11T10:25:00.363Z,21.70
2023-02-11T10:26:02.623Z,21.77
2023-02-11T10:27:17.793Z,20.80
2023-02-11T10:28:25.043Z,20.60
2023-02-11T10:29:36.131Z,21.83
2023-02-11T10:31:01.499Z,22.07
2023-02-11T10:32:15.686Z,22.53
2023-02-11T10:33:43.746Z,21.87
2023-02-11T10:34:45.403Z,20.80
2023-02-11T10:35:47.296Z,20.70
2023-02-11T10:36:49.025Z,21.97
2023-02-11T10:37:50.848Z,22.07
2023-02-11T10:38:52.570Z,22.30
2023-02-11T10:39:54.376Z,22.30
2023-02-11T10:40:56.081Z,22.20
2023-02-11T10:42:10.867Z,21.70
2023-02-11T10:43:16.371Z,22.17
2023-02-11T10:44:30.154Z,20.67
2023-02-11T10:45:38.673Z,21.73
2023-02-11T10:46:40.516Z,21.97
2023-02-11T10:47:43.456Z,21.97
2023-02-11T10:48:50.895Z,22.37
2023-02-11T10:49:52.663Z,21.83
2023-02-11T10:51:07.417Z,20.57
2023-02-11T10:52:20.747Z,21.27
2023-02-11T10:53:24.360Z,21.43
2023-02-11T10:54:26.091Z,20.87
2023-02-11T10:55:28.675Z,21.00
2023-02-11T10:56:36.338Z,21.33
2023-02-11T10:57:51.208Z,20.80
2023-02-11T10:59:00.114Z,21.47
2023-02-11T11:00:07.998Z,20.70
2023-02-11T11:01:23.782Z,21.63
2023-02-11T11:02:36.102Z,20.60
2023-02-11T11:03:48.364Z,20.50
2023-02-11T11:04:55.656Z,20.10
2023-02-11T11:06:03.895Z,20.90
2023-02-11T11:07:25.991Z,20.70
2023-02-11T11:08:44.079Z,19.57
2023-02-11T11:09:53.826Z,20.23
2023-02-11T11:11:07.328Z,21.30
2023-02-11T11:12:35.213Z,18.97
2023-02-11T11:14:03.197Z,20.10
2023-02-11T11:15:10.694Z,20.07
2023-02-11T11:16:12.450Z,20.67
2023-02-11T11:17:19.089Z,20.60
2023-02-11T11:18:23.236Z,21.77
2023-02-11T11:19:26.263Z,20.97
2023-02-11T11:20:32.206Z,20.93
2023-02-11T11:21:42.134Z,19.47
2023-02-11T11:22:45.397Z,20.07
2023-02-11T11:23:57.472Z,21.13
2023-02-11T11:25:01.541Z,19.77
2023-02-11T11:26:12.152Z,19.20
2023-02-11T11:27:23.589Z,19.07
2023-02-11T11:28:28.243Z,18.77
2023-02-11T11:29:43.218Z,19.07
2023-02-11T11:30:45.048Z,18.93
2023-02-11T11:32:15.577Z,19.83
2023-02-11T11:33:25.085Z,19.33
2023-02-11T11:34:32.005Z,17.00
2023-02-11T11:35:34.900Z,18.67
2023-02-11T11:36:40.292Z,19.07
2023-02-11T11:37:42.294Z,18.80
2023-02-11T11:38:49.092Z,18.63
2023-02-11T11:40:00.792Z,17.23
2023-02-11T11:41:24.148Z,15.47
2023-02-11T11:42:32.042Z,16.20
2023-02-11T11:43:33.737Z,16.30
2023-02-11T11:44:38.297Z,16.80
2023-02-11T11:45:53.070Z,16.80
2023-02-11T11:47:11.052Z,17.47
2023-02-11T11:48:22.378Z,16.13
2023-02-11T11:49:33.150Z,17.03
2023-02-11T11:50:47.408Z,16.70
2023-02-11T11:52:00.775Z,17.40
2023-02-11T11:53:27.866Z,16.67
2023-02-11T11:54:31.606Z,15.47
2023-02-11T11:55:41.725Z,15.43
2023-02-11T11:56:54.814Z,13.70
2023-02-11T11:57:56.583Z,11.97
2023-02-11T11:59:02.135Z,12.43
2023-02-11T12:00:05.099Z,13.20
2023-02-11T12:01:40.754Z,14.60
2023-02-11T12:03:27.534Z,13.30
2023-02-11T12:04:53.447Z,13.20
2023-02-11T12:06:22.778Z,12.13
2023-02-11T12:07:45.677Z,12.13
2023-02-11T12:09:25.513Z,11.90
2023-02-11T12:10:35.371Z,12.13
2023-02-11T12:11:37.142Z,12.30
2023-02-11T12:12:57.307Z,11.50
2023-02-11T12:14:32.876Z,11.70
2023-02-11T12:16:04.494Z,12.60
2023-02-11T12:17:31.057Z,11.90
2023-02-11T12:19:00.817Z,12.00
2023-02-11T12:20:24.285Z,10.93
2023-02-11T12:21:44.418Z,10.93
2023-02-11T12:23:07.236Z,10.80
2023-02-11T12:24:23.778Z,10.57
2023-02-11T12:25:29.164Z,9.97
2023-02-11T12:27:14.100Z,10.17
2023-02-11T12:29:12.717Z,9.97
2023-02-11T12:30:27.676Z,9.63
2023-02-11T12:31:46.875Z,10.43
2023-02-11T12:33:19.383Z,10.53
2023-02-11T12:34:24.285Z,9.90
2023-02-11T12:35:34.151Z,11.33
2023-02-11T12:36:54.410Z,10.00
2023-02-11T12:38:29.413Z,10.33
2023-02-11T12:39:48.290Z,8.37
2023-02-11T12:40:58.115Z,8.57
2023-02-11T12:42:31.910Z,9.10
2023-02-11T12:43:38.604Z,9.17
2023-02-11T12:45:00.552Z,9.33
2023-02-11T12:46:23.581Z,9.47
2023-02-11T12:47:28.168Z,9.50
2023-02-11T12:48:51.421Z,9.03
2023-02-11T12:50:19.242Z,8.87
2023-02-11T12:51:42.659Z,9.27
2023-02-11T12:53:25.803Z,9.97
2023-02-11T12:54:27.487Z,9.13
2023-02-11T12:55:37.201Z,7.93
2023-02-11T12:56:52.451Z,8.40
2023-02-11T12:57:57.887Z,7.88
2023-02-11T12:59:01.892Z,8.37
2023-02-11T13:00:12.662Z,8.50
2023-02-11T13:01:23.756Z,7.97
2023-02-11T13:02:40.410Z,8.20
2023-02-11T13:03:45.295Z,8.37
2023-02-11T13:04:54.042Z,7.30
2023-02-11T13:06:02.384Z,8.10
2023-02-11T13:07:12.563Z,7.32
2023-02-11T13:08:19.151Z,7.70
2023-02-11T13:09:30.625Z,7.07
2023-02-11T13:10:36.807Z,7.43
2023-02-11T13:11:51.851Z,6.82
2023-02-11T13:13:14.647Z,6.77
2023-02-11T13:14:28.491Z,6.70
2023-02-11T13:15:31.329Z,7.23
2023-02-11T13:16:46.309Z,7.70
2023-02-11T13:18:04.197Z,7.43
2023-02-11T13:19:27.805Z,7.85
2023-02-11T13:20:35.906Z,7.73
2023-02-11T13:22:08.836Z,7.70
2023-02-11T13:23:23.238Z,7.30
2023-02-11T13:24:47.954Z,7.27
2023-02-11T13:25:55.760Z,8.15
2023-02-11T13:27:04.205Z,8.07
2023-02-11T13:28:25.752Z,7.80
2023-02-11T13:29:49.498Z,7.67
2023-02-11T13:31:02.085Z,7.73
2023-02-11T13:32:12.587Z,8.73
2023-02-11T13:33:21.053Z,7.70
2023-02-11T13:34:46.895Z,8.10
2023-02-11T13:35:57.901Z,7.83
2023-02-11T13:36:59.720Z,7.73
2023-02-11T13:38:04.629Z,8.02
2023-02-11T13:39:06.768Z,7.70
2023-02-11T13:40:24.879Z,8.13
2023-02-11T13:41:30.786Z,7.13
2023-02-11T13:42:44.740Z,7.27
2023-02-11T13:44:19.355Z,7.37
2023-02-11T13:45:29.092Z,7.47
2023-02-11T13:46:50.808Z,8.40
2023-02-11T13:47:58.328Z,8.23
2023-02-11T13:49:00.158Z,8.23
2023-02-11T13:50:06.586Z,9.53
2023-02-11T13:51:12.482Z,8.77
2023-02-11T13:52:31.592Z,9.83
2023-02-11T13:53:56.678Z,11.43
2023-02-11T13:55:19.971Z,10.80
2023-02-11T13:56:44.041Z,11.30
2023-02-11T13:57:45.887Z,10.63
2023-02-11T13:58:49.299Z,11.90
2023-02-11T13:59:56.830Z,12.00
2023-02-11T14:00:58.644Z,12.00
2023-02-11T14:02:43.896Z,12.40
2023-02-11T14:04:36.643Z,12.40
2023-02-11T14:05:57.125Z,12.23
2023-02-11T14:07:44.618Z,12.07
2023-02-11T14:09:09.024Z,12.52
2023-02-11T14:10:42.925Z,12.40
2023-02-11T14:11:56.250Z,11.60
2023-02-11T14:13:26.392Z,11.50
2023-02-11T14:14:33.507Z,12.37
2023-02-11T14:15:40.324Z,11.20
2023-02-11T14:17:00.425Z,12.50
2023-02-11T14:18:03.306Z,12.67
2023-02-11T14:19:06.115Z,12.33
2023-02-11T14:20:43.567Z,21.23
2023-02-11T14:21:47.033Z,12.50
2023-02-11T14:22:50.777Z,12.67
2023-02-11T14:23:53.353Z,12.23
2023-02-11T14:25:04.306Z,11.77
2023-02-11T14:26:21.147Z,12.03
2023-02-11T14:27:41.738Z,12.17
2023-02-11T14:28:46.797Z,12.23
2023-02-11T14:30:13.180Z,11.47
2023-02-11T14:31:21.076Z,12.13
2023-02-11T14:32:52.175Z,11.83